sensor_id;sensor_type;location;lat;lon;timestamp;pressure;altitude;pressure_sealevel;temperature;humidity
2000;BME280;1001;48.87406500;9.59633600;2023-04-30T00:00:00;63665.75;;;-139.97;100.00
2000;BME280;1001;48.87406500;9.59633600;2023-04-30T00:02:27;63665.75;;;-139.97;100.00
2000;BME280;1001;48.87406500;9.59633600;2023-04-30T00:04:53;63665.75;;;-139.97;100.00
2000;BME280;1001;48.87406500;9.59633600;2023-04-30T00:07:20;63665.75;;;-139.97;100.00
2000;BME280;1001;48.87406500;9.59633600;2023-04-30T00:09:48;63665.75;;;-139.97;100.00
2000;BME280;1001;48.87406500;9.59633600;2023-04-30T00:12:15;63665.75;;;-139.97;100.00
2000;BME280;1001;48.87406500;9.59633600;2023-04-30T00:14:42;63665.75;;;-139.97;100.00
2000;BME280;1001;48.87406500;9.59633600;2023-04-30T00:17:08;63665.75;;;-139.97;100.00
2000;BME280;1001;48.87406500;9.59633600;2023-04-30T00:19:35;63665.75;;;-139.97;100.00
2000;BME280;1001;48.87406500;9.59633600;2023-04-30T00:22:02;63665.75;;;-139.97;100.00
2000;BME280;1001;48.87406500;9.59633600;2023-04-30T00:24:29;63665.75;;;-139.97;100.00
2000;BME280;1001;48.87406500;9.59633600;2023-04-30T00:26:57;63665.75;;;-139.97;100.00
2000;BME280;1001;48.87406500;9.59633600;2023-04-30T00:29:24;63665.75;;;-139.97;100.00
2000;BME280;1001;48.87406500;9.59633600;2023-04-30T00:31:50;63665.75;;;-139.97;100.00
2000;BME280;1001;48.87406500;9.59633600;2023-04-30T00:34:17;63665.75;;;-139.97;100.00
2000;BME280;1001;48.87406500;9.59633600;2023-04-30T00:36:44;63665.75;;;-139.97;100.00
2000;BME280;1001;48.87406500;9.59633600;2023-04-30T00:39:10;63665.75;;;-139.97;100.00
2000;BME280;1001;48.87406500;9.59633600;2023-04-30T00:41:37;63665.75;;;-139.97;100.00
2000;BME280;1001;48.87406500;9.59633600;2023-04-30T00:44:06;63665.75;;;-139.97;100.00
2000;BME280;1001;48.87406500;9.59633600;2023-04-30T00:46:32;63665.75;;;-139.97;100.00
2000;BME280;1001;48.87406500;9.59633600;2023-04-30T00:48:59;63665.75;;;-139.97;100.00
2000;BME280;1001;48.87406500;9.59633600;2023-04-30T00:51:30;63665.75;;;-139.97;100.00
2000;BME280;1001;48.87406500;9.59633600;2023-04-30T00:53:58;63665.75;;;-139.97;100.00
2000;BME280;1001;48.87406500;9.59633600;2023-04-30T00:56:26;63665.75;;;-139.97;100.00
2000;BME280;1001;48.87406500;9.59633600;2023-04-30T00:58:52;63665.75;;;-139.97;100.00
2000;BME280;1001;48.87406500;9.59633600;2023-04-30T01:01:22;63665.75;;;-139.97;100.00
2000;BME280;1001;48.87406500;9.59633600;2023-04-30T01:03:50;63665.75;;;-139.97;100.00
2000;BME280;1001;48.87406500;9.59633600;2023-04-30T01:06:18;63665.75;;;-139.97;100.00
2000;BME280;1001;48.87406500;9.59633600;2023-04-30T01:08:45;63665.75;;;-139.97;100.00
2000;BME280;1001;48.87406500;9.59633600;2023-04-30T01:11:18;63665.75;;;-139.97;100.00
2000;BME280;1001;48.87406500;9.59633600;2023-04-30T01:13:54;63665.75;;;-139.97;100.00
2000;BME280;1001;48.87406500;9.59633600;2023-04-30T01:16:25;63665.75;;;-139.97;100.00
2000;BME280;1001;48.87406500;9.59633600;2023-04-30T01:18:56;63665.75;;;-139.97;100.00
2000;BME280;1001;48.87406500;9.59633600;2023-04-30T01:21:26;63665.75;;;-139.97;100.00
2000;BME280;1001;48.87406500;9.59633600;2023-04-30T01:24:09;63665.75;;;-139.97;100.00
2000;BME280;1001;48.87406500;9.59633600;2023-04-30T01:26:52;63665.75;;;-139.97;100.00
2000;BME280;1001;48.87406500;9.59633600;2023-04-30T01:29:21;63665.75;;;-139.97;100.00
2000;BME280;1001;48.87406500;9.59633600;2023-04-30T01:31:49;63665.75;;;-139.97;100.00
2000;BME280;1001;48.87406500;9.59633600;2023-04-30T01:34:16;63665.75;;;-139.97;100.00
2000;BME280;1001;48.87406500;9.59633600;2023-04-30T01:36:49;63665.75;;;-139.97;100.00
2000;BME280;1001;48.87406500;9.59633600;2023-04-30T01:39:38;63665.75;;;-139.97;100.00
2000;BME280;1001;48.87406500;9.59633600;2023-04-30T01:42:17;63665.75;;;-139.97;100.00
2000;BME280;1001;48.87406500;9.59633600;2023-04-30T01:45:00;63665.75;;;-139.97;100.00
2000;BME280;1001;48.87406500;9.59633600;2023-04-30T01:47:33;63665.75;;;-139.97;100.00
2000;BME280;1001;48.87406500;9.59633600;2023-04-30T01:50:12;63665.75;;;-139.97;100.00
2000;BME280;1001;48.87406500;9.59633600;2023-04-30T01:52:45;63665.75;;;-139.97;100.00
2000;BME280;1001;48.87406500;9.59633600;2023-04-30T01:55:15;63665.75;;;-139.97;100.00
2000;BME280;1001;48.87406500;9.59633600;2023-04-30T01:57:50;63665.75;;;-139.97;100.00
2000;BME280;1001;48.87406500;9.59633600;2023-04-30T02:00:20;63665.75;;;-139.97;100.00
2000;BME280;1001;48.87406500;9.59633600;2023-04-30T02:02:47;63665.75;;;-139.97;100.00
2000;BME280;1001;48.87406500;9.59633600;2023-04-30T02:05:14;63665.75;;;-139.97;100.00
2000;BME280;1001;48.87406500;9.59633600;2023-04-30T02:07:42;63665.75;;;-139.97;100.00
2000;BME280;1001;48.87406500;9.59633600;2023-04-30T02:10:10;63665.75;;;-139.97;100.00
2000;BME280;1001;48.87406500;9.59633600;2023-04-30T02:12:37;63665.75;;;-139.97;100.00
2000;BME280;1001;48.87406500;9.59633600;2023-04-30T02:15:04;63665.75;;;-139.97;100.00
2000;BME280;1001;48.87406500;9.59633600;2023-04-30T02:17:33;63665.75;;;-139.97;100.00
2000;BME280;1001;48.87406500;9.59633600;2023-04-30T02:19:59;63665.75;;;-139.97;100.00
2000;BME280;1001;48.87406500;9.59633600;2023-04-30T02:22:26;63665.75;;;-139.97;100.00
2000;BME280;1001;48.87406500;9.59633600;2023-04-30T02:24:53;63665.75;;;-139.97;100.00
2000;BME280;1001;48.87406500;9.59633600;2023-04-30T02:27:23;63665.75;;;-139.97;100.00
2000;BME280;1001;48.87406500;9.59633600;2023-04-30T02:29:50;63665.75;;;-139.97;100.00
2000;BME280;1001;48.87406500;9.59633600;2023-04-30T02:32:16;63665.75;;;-139.97;100.00
2000;BME280;1001;48.87406500;9.59633600;2023-04-30T02:34:44;63665.75;;;-139.97;100.00
2000;BME280;1001;48.87406500;9.59633600;2023-04-30T02:37:11;63665.75;;;-139.97;100.00
2000;BME280;1001;48.87406500;9.59633600;2023-04-30T02:39:38;63665.75;;;-139.97;100.00
2000;BME280;1001;48.87406500;9.59633600;2023-04-30T02:42:05;63665.75;;;-139.97;100.00
2000;BME280;1001;48.87406500;9.59633600;2023-04-30T02:44:32;63665.75;;;-139.97;100.00
2000;BME280;1001;48.87406500;9.59633600;2023-04-30T02:46:59;63665.75;;;-139.97;100.00
2000;BME280;1001;48.87406500;9.59633600;2023-04-30T02:49:25;63665.75;;;-139.97;100.00
2000;BME280;1001;48.87406500;9.59633600;2023-04-30T02:51:53;63665.75;;;-139.97;100.00
2000;BME280;1001;48.87406500;9.59633600;2023-04-30T02:54:20;63665.75;;;-139.97;100.00
2000;BME280;1001;48.87406500;9.59633600;2023-04-30T02:56:47;63665.75;;;-139.97;100.00
2000;BME280;1001;48.87406500;9.59633600;2023-04-30T02:59:13;63665.75;;;-139.97;100.00
2000;BME280;1001;48.87406500;9.59633600;2023-04-30T03:01:40;63665.75;;;-139.97;100.00
2000;BME280;1001;48.87406500;9.59633600;2023-04-30T03:04:07;63665.75;;;-139.97;100.00
2000;BME280;1001;48.87406500;9.59633600;2023-04-30T03:06:33;63665.75;;;-139.97;100.00
2000;BME280;1001;48.87406500;9.59633600;2023-04-30T03:09:01;63665.75;;;-139.97;100.00
2000;BME280;1001;48.87406500;9.59633600;2023-04-30T03:11:28;63665.75;;;-139.97;100.00
2000;BME280;1001;48.87406500;9.59633600;2023-04-30T03:13:54;63665.75;;;-139.97;100.00
2000;BME280;1001;48.87406500;9.59633600;2023-04-30T03:16:21;63665.75;;;-139.97;100.00
2000;BME280;1001;48.87406500;9.59633600;2023-04-30T03:18:48;63665.75;;;-139.97;100.00
2000;BME280;1001;48.87406500;9.59633600;2023-04-30T03:21:15;63665.75;;;-139.97;100.00
2000;BME280;1001;48.87406500;9.59633600;2023-04-30T03:23:42;63665.75;;;-139.97;100.00
2000;BME280;1001;48.87406500;9.59633600;2023-04-30T03:26:09;63665.75;;;-139.97;100.00
2000;BME280;1001;48.87406500;9.59633600;2023-04-30T03:28:36;63665.75;;;-139.97;100.00
2000;BME280;1001;48.87406500;9.59633600;2023-04-30T03:31:03;63665.75;;;-139.97;100.00
2000;BME280;1001;48.87406500;9.59633600;2023-04-30T03:33:30;63665.75;;;-139.97;100.00
2000;BME280;1001;48.87406500;9.59633600;2023-04-30T03:35:57;63665.75;;;-139.97;100.00
2000;BME280;1001;48.87406500;9.59633600;2023-04-30T03:38:23;63665.75;;;-139.97;100.00
2000;BME280;1001;48.87406500;9.59633600;2023-04-30T03:40:50;63665.75;;;-139.97;100.00
2000;BME280;1001;48.87406500;9.59633600;2023-04-30T03:43:18;63665.75;;;-139.97;100.00
2000;BME280;1001;48.87406500;9.59633600;2023-04-30T03:45:45;63665.75;;;-139.97;100.00
2000;BME280;1001;48.87406500;9.59633600;2023-04-30T03:48:12;63665.75;;;-139.97;100.00
2000;BME280;1001;48.87406500;9.59633600;2023-04-30T03:50:38;63665.75;;;-139.97;100.00
2000;BME280;1001;48.87406500;9.59633600;2023-04-30T03:53:05;63665.75;;;-139.97;100.00
2000;BME280;1001;48.87406500;9.59633600;2023-04-30T03:55:32;63665.75;;;-139.97;100.00
2000;BME280;1001;48.87406500;9.59633600;2023-04-30T03:57:59;63665.75;;;-139.97;100.00
2000;BME280;1001;48.87406500;9.59633600;2023-04-30T04:00:27;63665.75;;;-139.97;100.00
2000;BME280;1001;48.87406500;9.59633600;2023-04-30T04:02:56;63665.75;;;-139.97;100.00
2000;BME280;1001;48.87406500;9.59633600;2023-04-30T04:05:23;63665.75;;;-139.97;100.00
2000;BME280;1001;48.87406500;9.59633600;2023-04-30T04:07:50;63665.75;;;-139.97;100.00
2000;BME280;1001;48.87406500;9.59633600;2023-04-30T04:10:16;63665.75;;;-139.97;100.00
2000;BME280;1001;48.87406500;9.59633600;2023-04-30T04:12:43;63665.75;;;-139.97;100.00
2000;BME280;1001;48.87406500;9.59633600;2023-04-30T04:15:09;63665.75;;;-139.97;100.00
2000;BME280;1001;48.87406500;9.59633600;2023-04-30T04:17:37;63665.75;;;-139.97;100.00
2000;BME280;1001;48.87406500;9.59633600;2023-04-30T04:20:05;63665.75;;;-139.97;100.00
2000;BME280;1001;48.87406500;9.59633600;2023-04-30T04:22:32;63665.75;;;-139.97;100.00
2000;BME280;1001;48.87406500;9.59633600;2023-04-30T04:24:59;63665.75;;;-139.97;100.00
2000;BME280;1001;48.87406500;9.59633600;2023-04-30T04:27:26;63665.75;;;-139.97;100.00
2000;BME280;1001;48.87406500;9.59633600;2023-04-30T04:29:52;63665.75;;;-139.97;100.00
2000;BME280;1001;48.87406500;9.59633600;2023-04-30T04:32:19;63665.75;;;-139.97;100.00
2000;BME280;1001;48.87406500;9.59633600;2023-04-30T04:34:48;63665.75;;;-139.97;100.00
2000;BME280;1001;48.87406500;9.59633600;2023-04-30T04:37:14;63665.75;;;-139.97;100.00
2000;BME280;1001;48.87406500;9.59633600;2023-04-30T04:39:41;63665.75;;;-139.97;100.00
2000;BME280;1001;48.87406500;9.59633600;2023-04-30T04:42:09;63665.75;;;-139.97;100.00
2000;BME280;1001;48.87406500;9.59633600;2023-04-30T04:44:35;63665.75;;;-139.97;100.00
2000;BME280;1001;48.87406500;9.59633600;2023-04-30T04:47:03;63665.75;;;-139.97;100.00
2000;BME280;1001;48.87406500;9.59633600;2023-04-30T04:49:30;63665.75;;;-139.97;100.00
2000;BME280;1001;48.87406500;9.59633600;2023-04-30T04:51:58;63665.75;;;-139.97;100.00
2000;BME280;1001;48.87406500;9.59633600;2023-04-30T04:54:26;63665.75;;;-139.97;100.00
2000;BME280;1001;48.87406500;9.59633600;2023-04-30T04:56:52;63665.75;;;-139.97;100.00
2000;BME280;1001;48.87406500;9.59633600;2023-04-30T04:59:19;63665.75;;;-139.97;100.00
2000;BME280;1001;48.87406500;9.59633600;2023-04-30T05:01:46;63665.75;;;-139.97;100.00
2000;BME280;1001;48.87406500;9.59633600;2023-04-30T05:04:13;63665.75;;;-139.97;100.00
2000;BME280;1001;48.87406500;9.59633600;2023-04-30T05:06:39;63665.75;;;-139.97;100.00
2000;BME280;1001;48.87406500;9.59633600;2023-04-30T05:09:08;63665.75;;;-139.97;100.00
2000;BME280;1001;48.87406500;9.59633600;2023-04-30T05:11:35;63665.75;;;-139.97;100.00
2000;BME280;1001;48.87406500;9.59633600;2023-04-30T05:14:01;63665.75;;;-139.97;100.00
2000;BME280;1001;48.87406500;9.59633600;2023-04-30T05:16:28;63665.75;;;-139.97;100.00
2000;BME280;1001;48.87406500;9.59633600;2023-04-30T05:18:54;63665.75;;;-139.97;100.00
2000;BME280;1001;48.87406500;9.59633600;2023-04-30T05:21:21;63665.75;;;-139.97;100.00
2000;BME280;1001;48.87406500;9.59633600;2023-04-30T05:23:50;63665.75;;;-139.97;100.00
2000;BME280;1001;48.87406500;9.59633600;2023-04-30T05:26:18;63665.75;;;-139.97;100.00
2000;BME280;1001;48.87406500;9.59633600;2023-04-30T05:28:44;63665.75;;;-139.97;100.00
2000;BME280;1001;48.87406500;9.59633600;2023-04-30T05:31:11;63665.75;;;-139.97;100.00
2000;BME280;1001;48.87406500;9.59633600;2023-04-30T05:33:37;63665.75;;;-139.97;100.00
2000;BME280;1001;48.87406500;9.59633600;2023-04-30T05:36:05;63665.75;;;-139.97;100.00
2000;BME280;1001;48.87406500;9.59633600;2023-04-30T05:38:31;63665.75;;;-139.97;100.00
2000;BME280;1001;48.87406500;9.59633600;2023-04-30T05:40:59;63665.75;;;-139.97;100.00
2000;BME280;1001;48.87406500;9.59633600;2023-04-30T05:43:27;63665.75;;;-139.97;100.00
2000;BME280;1001;48.87406500;9.59633600;2023-04-30T05:45:53;63665.75;;;-139.97;100.00
2000;BME280;1001;48.87406500;9.59633600;2023-04-30T05:48:20;63665.75;;;-139.97;100.00
2000;BME280;1001;48.87406500;9.59633600;2023-04-30T05:50:46;63665.75;;;-139.97;100.00
2000;BME280;1001;48.87406500;9.59633600;2023-04-30T05:53:13;63665.75;;;-139.97;100.00
2000;BME280;1001;48.87406500;9.59633600;2023-04-30T05:55:39;63665.75;;;-139.97;100.00
2000;BME280;1001;48.87406500;9.59633600;2023-04-30T05:58:06;63665.75;;;-139.97;100.00
2000;BME280;1001;48.87406500;9.59633600;2023-04-30T06:00:34;63665.75;;;-139.97;100.00
2000;BME280;1001;48.87406500;9.59633600;2023-04-30T06:03:01;63665.75;;;-139.97;100.00
2000;BME280;1001;48.87406500;9.59633600;2023-04-30T06:05:28;63665.75;;;-139.97;100.00
2000;BME280;1001;48.87406500;9.59633600;2023-04-30T06:07:55;63665.75;;;-139.97;100.00
2000;BME280;1001;48.87406500;9.59633600;2023-04-30T06:10:21;63665.75;;;-139.97;100.00
2000;BME280;1001;48.87406500;9.59633600;2023-04-30T06:12:48;63665.75;;;-139.97;100.00
2000;BME280;1001;48.87406500;9.59633600;2023-04-30T06:15:15;63665.75;;;-139.97;100.00
2000;BME280;1001;48.87406500;9.59633600;2023-04-30T06:17:42;63665.75;;;-139.97;100.00
2000;BME280;1001;48.87406500;9.59633600;2023-04-30T06:20:10;63665.75;;;-139.97;100.00
2000;BME280;1001;48.87406500;9.59633600;2023-04-30T06:22:36;63665.75;;;-139.97;100.00
2000;BME280;1001;48.87406500;9.59633600;2023-04-30T06:25:06;63665.75;;;-139.97;100.00
2000;BME280;1001;48.87406500;9.59633600;2023-04-30T06:27:33;63665.75;;;-139.97;100.00
2000;BME280;1001;48.87406500;9.59633600;2023-04-30T06:29:59;63665.75;;;-139.97;100.00
2000;BME280;1001;48.87406500;9.59633600;2023-04-30T06:32:26;63665.75;;;-139.97;100.00
2000;BME280;1001;48.87406500;9.59633600;2023-04-30T06:34:54;63665.75;;;-139.97;100.00
2000;BME280;1001;48.87406500;9.59633600;2023-04-30T06:37:21;63665.75;;;-139.97;100.00
2000;BME280;1001;48.87406500;9.59633600;2023-04-30T06:39:48;63665.75;;;-139.97;100.00
2000;BME280;1001;48.87406500;9.59633600;2023-04-30T06:42:15;63665.75;;;-139.97;100.00
2000;BME280;1001;48.87406500;9.59633600;2023-04-30T06:44:42;63665.75;;;-139.97;100.00
2000;BME280;1001;48.87406500;9.59633600;2023-04-30T06:47:10;63665.75;;;-139.97;100.00
2000;BME280;1001;48.87406500;9.59633600;2023-04-30T06:49:36;63665.75;;;-139.97;100.00
2000;BME280;1001;48.87406500;9.59633600;2023-04-30T06:52:04;63665.75;;;-139.97;100.00
2000;BME280;1001;48.87406500;9.59633600;2023-04-30T06:54:31;63665.75;;;-139.97;100.00
2000;BME280;1001;48.87406500;9.59633600;2023-04-30T06:56:57;63665.75;;;-139.97;100.00
2000;BME280;1001;48.87406500;9.59633600;2023-04-30T06:59:24;63665.75;;;-139.97;100.00
2000;BME280;1001;48.87406500;9.59633600;2023-04-30T07:01:50;63665.75;;;-139.97;100.00
2000;BME280;1001;48.87406500;9.59633600;2023-04-30T07:04:17;63665.75;;;-139.97;100.00
2000;BME280;1001;48.87406500;9.59633600;2023-04-30T07:06:44;63665.75;;;-139.97;100.00
2000;BME280;1001;48.87406500;9.59633600;2023-04-30T07:09:12;63665.75;;;-139.97;100.00
2000;BME280;1001;48.87406500;9.59633600;2023-04-30T07:11:39;63665.75;;;-139.97;100.00
2000;BME280;1001;48.87406500;9.59633600;2023-04-30T07:14:07;63665.75;;;-139.97;100.00
2000;BME280;1001;48.87406500;9.59633600;2023-04-30T07:16:33;63665.75;;;-139.97;100.00
2000;BME280;1001;48.87406500;9.59633600;2023-04-30T07:19:00;63665.75;;;-139.97;100.00
2000;BME280;1001;48.87406500;9.59633600;2023-04-30T07:21:26;63665.75;;;-139.97;100.00
2000;BME280;1001;48.87406500;9.59633600;2023-04-30T07:23:53;63665.75;;;-139.97;100.00
2000;BME280;1001;48.87406500;9.59633600;2023-04-30T07:26:21;63665.75;;;-139.97;100.00
2000;BME280;1001;48.87406500;9.59633600;2023-04-30T07:28:49;63665.75;;;-139.97;100.00
2000;BME280;1001;48.87406500;9.59633600;2023-04-30T07:31:15;63665.75;;;-139.97;100.00
2000;BME280;1001;48.87406500;9.59633600;2023-04-30T07:33:43;63665.75;;;-139.97;100.00
2000;BME280;1001;48.87406500;9.59633600;2023-04-30T07:36:10;63665.75;;;-139.97;100.00
2000;BME280;1001;48.87406500;9.59633600;2023-04-30T07:38:36;63665.75;;;-139.97;100.00
2000;BME280;1001;48.87406500;9.59633600;2023-04-30T07:41:03;63665.75;;;-139.97;100.00
2000;BME280;1001;48.87406500;9.59633600;2023-04-30T07:43:31;63665.75;;;-139.97;100.00
2000;BME280;1001;48.87406500;9.59633600;2023-04-30T07:45:58;63665.75;;;-139.97;100.00
2000;BME280;1001;48.87406500;9.59633600;2023-04-30T07:48:25;63665.75;;;-139.97;100.00
2000;BME280;1001;48.87406500;9.59633600;2023-04-30T07:50:51;63665.75;;;-139.97;100.00
2000;BME280;1001;48.87406500;9.59633600;2023-04-30T07:53:18;63665.75;;;-139.97;100.00
2000;BME280;1001;48.87406500;9.59633600;2023-04-30T07:55:45;63665.75;;;-139.97;100.00
2000;BME280;1001;48.87406500;9.59633600;2023-04-30T07:58:11;63665.75;;;-139.97;100.00
2000;BME280;1001;48.87406500;9.59633600;2023-04-30T08:00:39;63665.75;;;-139.97;100.00
2000;BME280;1001;48.87406500;9.59633600;2023-04-30T08:03:06;63665.75;;;-139.97;100.00
2000;BME280;1001;48.87406500;9.59633600;2023-04-30T08:05:33;63665.75;;;-139.97;100.00
2000;BME280;1001;48.87406500;9.59633600;2023-04-30T08:08:00;63665.75;;;-139.97;100.00
2000;BME280;1001;48.87406500;9.59633600;2023-04-30T08:10:27;63665.75;;;-139.97;100.00
2000;BME280;1001;48.87406500;9.59633600;2023-04-30T08:12:53;63665.75;;;-139.97;100.00
2000;BME280;1001;48.87406500;9.59633600;2023-04-30T08:15:20;63665.75;;;-139.97;100.00
2000;BME280;1001;48.87406500;9.59633600;2023-04-30T08:17:49;63665.75;;;-139.97;100.00
2000;BME280;1001;48.87406500;9.59633600;2023-04-30T08:20:16;63665.75;;;-139.97;100.00
2000;BME280;1001;48.87406500;9.59633600;2023-04-30T08:22:43;63665.75;;;-139.97;100.00
2000;BME280;1001;48.87406500;9.59633600;2023-04-30T08:25:09;63665.75;;;-139.97;100.00
2000;BME280;1001;48.87406500;9.59633600;2023-04-30T08:27:36;63665.75;;;-139.97;100.00
2000;BME280;1001;48.87406500;9.59633600;2023-04-30T08:30:04;63665.75;;;-139.97;100.00
2000;BME280;1001;48.87406500;9.59633600;2023-04-30T08:32:33;63665.75;;;-139.97;100.00
2000;BME280;1001;48.87406500;9.59633600;2023-04-30T08:35:01;63665.75;;;-139.97;100.00
2000;BME280;1001;48.87406500;9.59633600;2023-04-30T08:37:28;63665.75;;;-139.97;100.00
2000;BME280;1001;48.87406500;9.59633600;2023-04-30T08:39:54;95389.84;;;15.30;49.37
2000;BME280;1001;48.87406500;9.59633600;2023-04-30T08:42:24;95387.66;;;14.69;50.95
2000;BME280;1001;48.87406500;9.59633600;2023-04-30T08:44:53;95388.97;;;14.45;51.79
2000;BME280;1001;48.87406500;9.59633600;2023-04-30T08:47:22;95381.00;;;14.40;51.35
2000;BME280;1001;48.87406500;9.59633600;2023-04-30T08:49:49;95390.19;;;14.59;50.84
2000;BME280;1001;48.87406500;9.59633600;2023-04-30T08:52:18;95394.75;;;15.22;50.54
2000;BME280;1001;48.87406500;9.59633600;2023-04-30T08:54:45;95396.78;;;15.68;50.48
2000;BME280;1001;48.87406500;9.59633600;2023-04-30T08:57:13;95398.66;;;15.14;49.47
2000;BME280;1001;48.87406500;9.59633600;2023-04-30T08:59:39;95391.47;;;15.63;49.19
2000;BME280;1001;48.87406500;9.59633600;2023-04-30T09:02:06;95400.25;;;16.15;50.44
2000;BME280;1001;48.87406500;9.59633600;2023-04-30T09:04:34;95402.00;;;16.52;47.40
2000;BME280;1001;48.87406500;9.59633600;2023-04-30T09:07:01;95403.13;;;16.61;49.25
2000;BME280;1001;48.87406500;9.59633600;2023-04-30T09:09:36;95402.69;;;16.32;45.45
2000;BME280;1001;48.87406500;9.59633600;2023-04-30T09:12:11;95396.78;;;16.10;46.75
2000;BME280;1001;48.87406500;9.59633600;2023-04-30T09:14:39;95404.69;;;15.68;47.08
2000;BME280;1001;48.87406500;9.59633600;2023-04-30T09:17:06;95402.00;;;15.63;48.23
2000;BME280;1001;48.87406500;9.59633600;2023-04-30T09:19:34;95395.81;;;15.84;49.33
2000;BME280;1001;48.87406500;9.59633600;2023-04-30T09:22:19;95389.91;;;15.67;49.04
2000;BME280;1001;48.87406500;9.59633600;2023-04-30T09:24:48;95402.59;;;15.12;49.99
2000;BME280;1001;48.87406500;9.59633600;2023-04-30T09:27:16;95396.16;;;15.29;49.64
2000;BME280;1001;48.87406500;9.59633600;2023-04-30T09:29:42;95396.47;;;15.06;50.46
2000;BME280;1001;48.87406500;9.59633600;2023-04-30T09:32:09;95404.09;;;15.34;51.34
2000;BME280;1001;48.87406500;9.59633600;2023-04-30T09:34:36;95403.34;;;15.39;52.33
2000;BME280;1001;48.87406500;9.59633600;2023-04-30T09:37:02;95402.59;;;15.43;52.96
2000;BME280;1001;48.87406500;9.59633600;2023-04-30T09:39:29;95406.69;;;15.29;52.92
2000;BME280;1001;48.87406500;9.59633600;2023-04-30T09:42:07;95395.44;;;15.39;53.99
2000;BME280;1001;48.87406500;9.59633600;2023-04-30T09:44:36;95394.50;;;15.18;52.93
2000;BME280;1001;48.87406500;9.59633600;2023-04-30T09:47:03;95404.22;;;15.18;53.87
2000;BME280;1001;48.87406500;9.59633600;2023-04-30T09:49:30;95404.00;;;15.51;53.10
2000;BME280;1001;48.87406500;9.59633600;2023-04-30T09:51:57;95409.25;;;15.46;54.20
2000;BME280;1001;48.87406500;9.59633600;2023-04-30T09:54:25;95406.41;;;15.89;53.87
2000;BME280;1001;48.87406500;9.59633600;2023-04-30T09:56:53;95405.75;;;15.72;53.51
2000;BME280;1001;48.87406500;9.59633600;2023-04-30T09:59:21;95407.41;;;15.46;52.88
2000;BME280;1001;48.87406500;9.59633600;2023-04-30T10:01:50;95403.09;;;15.40;53.88
2000;BME280;1001;48.87406500;9.59633600;2023-04-30T10:04:18;95399.09;;;15.06;53.23
2000;BME280;1001;48.87406500;9.59633600;2023-04-30T10:06:46;95403.63;;;15.11;54.94
2000;BME280;1001;48.87406500;9.59633600;2023-04-30T10:09:14;95401.47;;;15.34;53.82
2000;BME280;1001;48.87406500;9.59633600;2023-04-30T10:11:42;95403.53;;;15.54;55.31
2000;BME280;1001;48.87406500;9.59633600;2023-04-30T10:14:11;95399.34;;;15.31;54.46
2000;BME280;1001;48.87406500;9.59633600;2023-04-30T10:16:43;95391.84;;;15.18;54.59
2000;BME280;1001;48.87406500;9.59633600;2023-04-30T10:19:19;95399.81;;;15.55;53.56
2000;BME280;1001;48.87406500;9.59633600;2023-04-30T10:21:48;95405.03;;;16.28;52.68
2000;BME280;1001;48.87406500;9.59633600;2023-04-30T10:24:16;95395.41;;;16.02;51.73
2000;BME280;1001;48.87406500;9.59633600;2023-04-30T10:26:44;95386.63;;;15.55;53.11
2000;BME280;1001;48.87406500;9.59633600;2023-04-30T10:29:12;95393.47;;;15.24;54.04
2000;BME280;1001;48.87406500;9.59633600;2023-04-30T10:31:42;95392.34;;;15.15;54.28
2000;BME280;1001;48.87406500;9.59633600;2023-04-30T10:34:16;95385.50;;;15.14;54.15
2000;BME280;1001;48.87406500;9.59633600;2023-04-30T10:36:46;95383.63;;;15.41;54.41
2000;BME280;1001;48.87406500;9.59633600;2023-04-30T10:39:14;95376.88;;;15.87;52.68
2000;BME280;1001;48.87406500;9.59633600;2023-04-30T10:41:44;95382.03;;;16.19;53.35
2000;BME280;1001;48.87406500;9.59633600;2023-04-30T10:44:11;95379.38;;;16.14;52.76
2000;BME280;1001;48.87406500;9.59633600;2023-04-30T10:46:38;95380.44;;;16.13;50.85
2000;BME280;1001;48.87406500;9.59633600;2023-04-30T10:49:06;95384.66;;;16.14;51.04
2000;BME280;1001;48.87406500;9.59633600;2023-04-30T10:51:49;95385.78;;;16.28;53.06
2000;BME280;1001;48.87406500;9.59633600;2023-04-30T10:54:24;95384.53;;;16.41;53.78
2000;BME280;1001;48.87406500;9.59633600;2023-04-30T10:56:51;95356.81;;;15.86;52.82
2000;BME280;1001;48.87406500;9.59633600;2023-04-30T10:59:18;95383.09;;;15.76;51.39
2000;BME280;1001;48.87406500;9.59633600;2023-04-30T11:01:53;95380.72;;;15.75;50.80
2000;BME280;1001;48.87406500;9.59633600;2023-04-30T11:04:22;95372.34;;;15.88;51.25
2000;BME280;1001;48.87406500;9.59633600;2023-04-30T11:06:54;95377.19;;;16.01;50.46
2000;BME280;1001;48.87406500;9.59633600;2023-04-30T11:09:33;95367.84;;;15.83;51.18
2000;BME280;1001;48.87406500;9.59633600;2023-04-30T11:12:02;95369.78;;;15.98;51.01
2000;BME280;1001;48.87406500;9.59633600;2023-04-30T11:14:31;95371.16;;;15.63;53.35
2000;BME280;1001;48.87406500;9.59633600;2023-04-30T11:16:58;95364.75;;;15.49;52.88
2000;BME280;1001;48.87406500;9.59633600;2023-04-30T11:19:27;95376.47;;;15.37;53.34
2000;BME280;1001;48.87406500;9.59633600;2023-04-30T11:22:20;95375.47;;;15.75;52.34
2000;BME280;1001;48.87406500;9.59633600;2023-04-30T11:24:51;95375.09;;;16.03;52.59
2000;BME280;1001;48.87406500;9.59633600;2023-04-30T11:27:19;95377.41;;;15.89;51.53
2000;BME280;1001;48.87406500;9.59633600;2023-04-30T11:29:46;95376.88;;;15.87;51.41